Time;durP1;ratioP1;P1;durP2;ratioP2;P2;SDS_P1;SDS_P2;PMS_P1;PMS_P2;Temp;Humidity;BMP_temperature;BMP_pressure;BME280_temperature;BME280_humidity;BME280_pressure;Samples;Min_cycle;Max_cycle;Signal;HPM_P1;HPM_P2
2024/02/10 00:00:20;;;;;;;;;;;;;;;7.48;84.81;99780.85;106144;1257;72677;-89
2024/02/10 00:02:48;;;;;;;;;;;;;;;7.35;85.65;99779.66;106151;1262;68401;-90
2024/02/10 00:05:28;;;;;;;;;;;;;;;7.32;85.70;99773.69;106329;1257;72754;-88
2024/02/10 00:08:09;;;;;;;;;;;;;;;7.33;85.81;99766.78;106279;1260;60859;-90
2024/02/10 00:10:48;;;;;;;;;;;;;;;7.28;86.67;99761.03;106572;1260;60463;-89
2024/02/10 00:13:20;;;;;;;;;;;;;;;7.28;87.03;99758.41;106249;1260;74165;-90
2024/02/10 00:16:01;;;;;;;;;;;;;;;7.40;85.96;99756.34;106044;1260;68435;-90
2024/02/10 00:18:41;;;;;;;;;;;;;;;7.48;85.64;99755.34;106231;1263;71469;-90
2024/02/10 00:21:20;;;;;;;;;;;;;;;7.21;87.30;99761.10;106641;1258;60505;-91
2024/02/10 00:23:54;;;;;;;;;;;;;;;7.12;88.44;99759.47;106259;1262;60378;-88
2024/02/10 00:26:34;;;;;;;;;;;;;;;7.20;88.13;99764.42;106324;1257;73809;-89
2024/02/10 00:29:14;;;;;;;;;;;;;;;7.28;87.32;99762.94;106375;1260;67783;-89
2024/02/10 00:31:48;;;;;;;;;;;;;;;7.18;88.09;99770.45;106368;1257;72711;-89
2024/02/10 00:34:28;;;;;;;;;;;;;;;7.07;88.84;99767.36;105891;1256;60812;-88
2024/02/10 00:37:08;;;;;;;;;;;;;;;7.07;89.12;99761.23;106209;1263;60326;-89
2024/02/10 00:39:49;;;;;;;;;;;;;;;6.93;90.22;99755.58;106182;1258;73778;-90
2024/02/10 00:42:27;;;;;;;;;;;;;;;6.93;90.74;99757.48;106526;1256;68349;-88
2024/02/10 00:45:00;;;;;;;;;;;;;;;6.95;90.67;99759.16;106101;1260;70177;-89
2024/02/10 00:47:44;;;;;;;;;;;;;;;6.94;91.08;99762.04;106295;1257;60867;-89
2024/02/10 00:50:24;;;;;;;;;;;;;;;6.90;91.11;99764.16;106129;1257;60455;-89
2024/02/10 00:53:02;;;;;;;;;;;;;;;6.78;91.64;99763.50;105909;1261;73828;-88
2024/02/10 00:55:36;;;;;;;;;;;;;;;6.90;91.23;99756.39;106590;1258;68354;-88
2024/02/10 00:58:16;;;;;;;;;;;;;;;7.04;90.07;99757.69;106103;1263;72800;-87
2024/02/10 01:00:56;;;;;;;;;;;;;;;7.07;89.68;99753.84;106250;1261;61095;-90
2024/02/10 01:03:29;;;;;;;;;;;;;;;7.14;89.20;99748.72;106267;1258;60433;-89
2024/02/10 01:06:05;;;;;;;;;;;;;;;7.10;89.85;99747.25;106306;1260;73816;-88
2024/02/10 01:08:48;;;;;;;;;;;;;;;7.17;89.29;99747.73;106168;1262;67137;-87
2024/02/10 01:11:32;;;;;;;;;;;;;;;7.19;89.29;99748.34;105982;1257;71368;-90
2024/02/10 01:14:12;;;;;;;;;;;;;;;7.20;89.06;99749.31;106187;1258;61080;-89
2024/02/10 01:16:44;;;;;;;;;;;;;;;7.28;88.48;99747.99;106260;1257;60625;-88
2024/02/10 01:19:27;;;;;;;;;;;;;;;7.36;87.67;99744.55;106245;1263;74164;-90
2024/02/10 01:22:08;;;;;;;;;;;;;;;7.43;87.46;99738.72;106283;1262;67134;-88
2024/02/10 01:24:48;;;;;;;;;;;;;;;7.33;87.91;99734.11;106949;1262;70409;-87
2024/02/10 01:27:18;;;;;;;;;;;;;;;7.41;87.66;99731.38;106421;1257;60441;-88
2024/02/10 01:30:04;;;;;;;;;;;;;;;7.47;86.89;99734.41;106045;1258;60629;-87
2024/02/10 01:32:43;;;;;;;;;;;;;;;7.35;87.46;99736.12;106186;1262;73911;-90
2024/02/10 01:35:18;;;;;;;;;;;;;;;7.23;88.80;99729.73;106335;1257;67112;-88
2024/02/10 01:37:52;;;;;;;;;;;;;;;7.26;88.41;99729.83;106268;1260;71428;-90
2024/02/10 01:40:32;;;;;;;;;;;;;;;7.28;88.37;99727.88;106486;1257;60424;-90
2024/02/10 01:43:12;;;;;;;;;;;;;;;7.24;88.21;99728.44;106294;1257;60351;-87
2024/02/10 01:45:49;;;;;;;;;;;;;;;7.21;88.73;99733.05;106224;1261;73844;-87
2024/02/10 01:48:23;;;;;;;;;;;;;;;7.18;89.20;99729.36;106171;1263;67283;-87
2024/02/10 01:51:03;;;;;;;;;;;;;;;7.13;89.78;99732.30;106286;1257;70865;-90
2024/02/10 01:53:43;;;;;;;;;;;;;;;7.13;89.74;99737.20;106203;1262;60928;-90
2024/02/10 01:56:17;;;;;;;;;;;;;;;7.01;90.88;99743.02;106333;1258;60363;-89
2024/02/10 01:58:51;;;;;;;;;;;;;;;6.99;91.32;99747.16;106260;1262;73855;-87
2024/02/10 02:01:31;;;;;;;;;;;;;;;7.02;91.20;99745.58;106268;1257;68687;-89
2024/02/10 02:04:14;;;;;;;;;;;;;;;6.89;92.32;99747.32;106100;1262;74426;-89
2024/02/10 02:06:48;;;;;;;;;;;;;;;6.85;92.56;99750.79;106117;1256;61121;-90
2024/02/10 02:09:22;;;;;;;;;;;;;;;6.94;92.43;99749.23;106302;1256;60432;-87
2024/02/10 02:12:02;;;;;;;;;;;;;;;6.94;92.25;99747.42;106180;1258;73147;-88
2024/02/10 02:14:46;;;;;;;;;;;;;;;7.03;91.85;99743.95;106434;1260;67435;-90
2024/02/10 02:17:20;;;;;;;;;;;;;;;7.06;91.42;99743.35;106390;1258;72722;-86
2024/02/10 02:19:54;;;;;;;;;;;;;;;7.13;91.05;99740.02;106312;1257;60560;-86
2024/02/10 02:22:34;;;;;;;;;;;;;;;7.27;89.98;99736.68;106344;1263;60584;-89
2024/02/10 02:25:13;;;;;;;;;;;;;;;7.27;89.95;99739.13;106638;1257;73851;-86
2024/02/10 02:27:47;;;;;;;;;;;;;;;7.33;89.49;99742.27;106127;1263;68683;-87
2024/02/10 02:30:21;;;;;;;;;;;;;;;7.36;89.18;99747.80;106338;1262;71406;-87
2024/02/10 02:33:01;;;;;;;;;;;;;;;7.35;89.05;99751.02;106308;1257;60861;-89
2024/02/10 02:35:43;;;;;;;;;;;;;;;7.35;89.11;99750.27;105986;1258;60432;-89
2024/02/10 02:38:17;;;;;;;;;;;;;;;7.33;89.11;99757.06;106898;1256;73864;-89
2024/02/10 02:40:50;;;;;;;;;;;;;;;7.28;89.11;99758.59;106228;1257;66739;-88
2024/02/10 02:43:35;;;;;;;;;;;;;;;7.14;90.44;99763.81;106303;1260;72653;-86
2024/02/10 02:46:15;;;;;;;;;;;;;;;7.26;90.17;99765.88;106298;1258;60356;-87
2024/02/10 02:48:50;;;;;;;;;;;;;;;7.25;89.83;99772.28;106350;1254;60541;-89
2024/02/10 02:51:24;;;;;;;;;;;;;;;7.20;89.98;99770.29;106827;1254;72603;-87
2024/02/10 02:54:04;;;;;;;;;;;;;;;7.17;90.44;99771.53;106713;1254;67228;-86
2024/02/10 02:56:44;;;;;;;;;;;;;;;6.93;92.12;99770.84;106516;1258;72692;-89
2024/02/10 02:59:20;;;;;;;;;;;;;;;6.81;93.17;99774.48;106436;1258;60844;-85
2024/02/10 03:01:54;;;;;;;;;;;;;;;6.96;92.85;99771.02;106570;1256;60524;-86
2024/02/10 03:04:35;;;;;;;;;;;;;;;7.05;91.92;99771.05;106225;1254;72757;-86
2024/02/10 03:07:18;;;;;;;;;;;;;;;6.82;93.35;99779.70;106936;1259;68417;-87
2024/02/10 03:09:52;;;;;;;;;;;;;;;6.77;94.02;99783.81;106500;1254;72478;-89
2024/02/10 03:12:25;;;;;;;;;;;;;;;6.76;94.26;99780.34;106341;1254;60876;-89
2024/02/10 03:15:05;;;;;;;;;;;;;;;6.87;93.95;99776.11;106319;1254;60455;-89
2024/02/10 03:17:46;;;;;;;;;;;;;;;6.89;93.35;99776.06;106511;1257;71494;-86
2024/02/10 03:20:23;;;;;;;;;;;;;;;6.94;93.33;99774.41;106449;1254;70461;-89
2024/02/10 03:23:04;;;;;;;;;;;;;;;6.86;93.58;99771.98;106323;1254;72656;-88
2024/02/10 03:25:43;;;;;;;;;;;;;;;6.90;93.08;99769.91;106438;1254;60451;-87
2024/02/10 03:28:24;;;;;;;;;;;;;;;6.89;93.31;99772.20;106440;1255;60371;-87
2024/02/10 03:30:58;;;;;;;;;;;;;;;6.93;93.42;99769.59;106700;1259;73855;-87
2024/02/10 03:33:39;;;;;;;;;;;;;;;7.11;92.28;99770.61;106415;1254;68248;-87
2024/02/10 03:36:18;;;;;;;;;;;;;;;7.12;91.55;99775.13;106471;1260;72461;-87
2024/02/10 03:39:03;;;;;;;;;;;;;;;7.10;91.99;99767.09;106376;1254;60410;-87
2024/02/10 03:41:44;;;;;;;;;;;;;;;7.17;91.40;99761.53;106914;1257;60550;-86
2024/02/10 03:44:24;;;;;;;;;;;;;;;7.09;91.54;99763.71;106387;1254;71658;-87
2024/02/10 03:47:09;;;;;;;;;;;;;;;6.96;92.40;99768.34;106454;1260;67130;-87
2024/02/10 03:49:49;;;;;;;;;;;;;;;6.90;93.30;99770.03;106374;1260;73269;-87
2024/02/10 03:52:30;;;;;;;;;;;;;;;6.98;92.69;99764.86;106365;1255;60428;-88
2024/02/10 03:55:10;;;;;;;;;;;;;;;7.01;92.32;99767.91;106900;1256;59238;-86
2024/02/10 03:57:53;;;;;;;;;;;;;;;7.25;91.03;99766.25;106414;1254;73866;-89
2024/02/10 04:00:36;;;;;;;;;;;;;;;7.39;89.47;99761.94;106309;1254;68671;-86
2024/02/10 04:03:17;;;;;;;;;;;;;;;7.61;88.04;99760.04;106316;1254;73213;-87
2024/02/10 04:05:57;;;;;;;;;;;;;;;7.42;88.55;99762.58;106838;1254;60824;-90
2024/02/10 04:08:37;;;;;;;;;;;;;;;7.31;89.90;99762.23;106450;1259;60358;-87
2024/02/10 04:11:20;;;;;;;;;;;;;;;7.41;89.17;99769.16;106561;1254;73876;-89
2024/02/10 04:14:00;;;;;;;;;;;;;;;7.41;88.64;99767.75;106280;1254;68556;-90
2024/02/10 04:16:46;;;;;;;;;;;;;;;7.61;87.89;99770.41;106354;1255;70424;-86
2024/02/10 04:19:26;;;;;;;;;;;;;;;7.62;87.31;99766.18;106399;1255;60474;-88
2024/02/10 04:22:07;;;;;;;;;;;;;;;7.60;87.58;99768.79;106355;1254;60493;-89
2024/02/10 04:24:46;;;;;;;;;;;;;;;7.60;87.33;99763.53;106556;1254;73658;-89
2024/02/10 04:27:26;;;;;;;;;;;;;;;7.64;87.27;99767.91;106418;1256;68501;-89
2024/02/10 04:30:06;;;;;;;;;;;;;;;7.98;84.74;99773.02;106408;1254;73580;-86
2024/02/10 04:32:46;;;;;;;;;;;;;;;7.95;84.20;99779.77;106374;1254;60457;-87
2024/02/10 04:35:26;;;;;;;;;;;;;;;8.02;83.84;99779.92;106559;1255;60367;-87
2024/02/10 04:38:08;;;;;;;;;;;;;;;7.82;85.01;99785.74;106629;1254;73603;-89
2024/02/10 04:40:48;;;;;;;;;;;;;;;7.84;85.14;99778.29;106405;1254;67110;-89
2024/02/10 04:43:28;;;;;;;;;;;;;;;7.77;85.41;99775.44;106569;1254;72884;-86
2024/02/10 04:46:10;;;;;;;;;;;;;;;7.73;86.06;99776.80;106400;1254;60928;-88
2024/02/10 04:48:53;;;;;;;;;;;;;;;7.71;85.81;99770.55;106395;1259;60400;-90
2024/02/10 04:51:35;;;;;;;;;;;;;;;7.58;87.32;99771.67;106495;1254;74106;-87
2024/02/10 04:54:16;;;;;;;;;;;;;;;7.54;87.57;99775.93;106259;1258;67300;-86
2024/02/10 04:56:58;;;;;;;;;;;;;;;7.61;87.33;99766.78;106432;1256;72674;-86
2024/02/10 04:59:38;;;;;;;;;;;;;;;7.59;86.99;99769.06;106341;1256;60512;-86
2024/02/10 05:02:18;;;;;;;;;;;;;;;7.58;87.16;99768.20;106544;1254;60316;-89
2024/02/10 05:04:58;;;;;;;;;;;;;;;7.80;86.06;99770.30;106288;1257;72574;-85
2024/02/10 05:07:38;;;;;;;;;;;;;;;7.83;85.42;99768.77;106627;1254;68546;-85
2024/02/10 12:11:00;;;;;;;;;;;;;;;8.64;82.98;99801.97;106459;1253;71396;-85
2024/02/10 12:13:34;;;;;;;;;;;;;;;9.06;79.82;99796.66;106536;1254;60469;-85
2024/02/10 12:16:10;;;;;;;;;;;;;;;9.09;78.63;99798.87;106636;1253;60547;-81
2024/02/10 12:18:48;;;;;;;;;;;;;;;8.90;80.21;99797.77;109166;1253;76176;-82
2024/02/10 12:21:24;;;;;;;;;;;;;;;8.84;80.26;99797.42;106758;1254;70894;-81
2024/02/10 12:23:59;;;;;;;;;;;;;;;8.63;81.97;99797.80;106290;1258;71197;-81
2024/02/10 12:26:33;;;;;;;;;;;;;;;8.43;83.55;99796.93;107028;1255;60374;-82
2024/02/10 12:29:09;;;;;;;;;;;;;;;8.14;85.85;99798.08;106458;1259;61944;-82
2024/02/10 12:31:49;;;;;;;;;;;;;;;8.33;84.91;99800.23;106487;1253;73484;-82
2024/02/10 12:34:25;;;;;;;;;;;;;;;8.29;84.76;99800.95;106461;1258;67478;-81
2024/02/10 12:36:59;;;;;;;;;;;;;;;8.27;84.76;99802.39;106497;1258;75021;-81
2024/02/10 12:39:32;;;;;;;;;;;;;;;8.36;84.20;99797.77;106430;1255;60537;-81
2024/02/10 12:42:09;;;;;;;;;;;;;;;8.34;83.97;99795.06;106953;1254;62161;-81
2024/02/10 12:44:44;;;;;;;;;;;;;;;8.24;84.69;99799.56;106424;1253;75565;-86
2024/02/10 12:47:17;;;;;;;;;;;;;;;8.21;84.75;99803.88;106633;1253;69692;-87
2024/02/10 12:49:51;;;;;;;;;;;;;;;8.07;85.96;99809.38;106419;1253;72759;-82
2024/02/10 12:52:25;;;;;;;;;;;;;;;8.30;84.43;99802.86;106503;1255;60414;-82
2024/02/10 12:55:09;;;;;;;;;;;;;;;8.44;83.22;99803.58;108007;1258;60888;-87
2024/02/10 12:57:51;;;;;;;;;;;;;;;8.30;84.00;99802.10;106713;1253;75513;-81
2024/02/10 13:00:25;;;;;;;;;;;;;;;8.30;84.21;99805.58;106759;1256;68759;-81
2024/02/10 13:02:59;;;;;;;;;;;;;;;8.52;82.42;99809.14;106529;1253;73875;-87
2024/02/10 13:05:39;;;;;;;;;;;;;;;8.40;83.10;99807.45;106423;1253;60559;-87
2024/02/10 13:08:19;;;;;;;;;;;;;;;8.51;82.66;99806.59;106603;1253;60553;-82
2024/02/10 13:10:46;;;;;;;;;;;;;;;8.49;82.76;99806.16;106312;1258;72202;-87
2024/02/10 13:13:27;;;;;;;;;;;;;;;8.45;82.96;99806.40;107380;1253;67155;-86
2024/02/10 13:16:07;;;;;;;;;;;;;;;8.58;81.99;99806.33;106607;1258;72040;-81
2024/02/10 13:18:46;;;;;;;;;;;;;;;8.55;81.94;99808.36;106645;1257;60874;-81
2024/02/10 13:21:17;;;;;;;;;;;;;;;8.38;83.29;99815.29;106489;1254;61899;-86
2024/02/10 13:23:57;;;;;;;;;;;;;;;8.38;83.62;99815.19;106555;1259;74752;-87
2024/02/10 13:26:36;;;;;;;;;;;;;;;8.37;83.51;99817.46;106646;1254;66573;-87
2024/02/10 13:29:22;;;;;;;;;;;;;;;8.45;83.13;99814.79;107059;1253;73699;-82
2024/02/10 13:31:50;;;;;;;;;;;;;;;8.44;83.17;99816.05;106418;1253;60942;-81
2024/02/10 13:34:31;;;;;;;;;;;;;;;8.41;83.55;99813.50;106581;1255;60349;-86
2024/02/10 14:00:49;;;;;;;;;;;;;;;8.39;83.44;99832.11;106907;1253;61146;-82
2024/02/10 14:03:17;;;;;;;;;;;;;;;8.32;84.36;99842.86;106445;1253;60933;-81
2024/02/10 14:06:05;;;;;;;;;;;;;;;8.35;84.33;99840.84;106711;1253;74692;-82
2024/02/10 14:08:49;;;;;;;;;;;;;;;8.28;84.94;99844.73;106585;1254;70487;-82
2024/02/10 14:11:38;;;;;;;;;;;;;;;8.33;84.60;99847.33;106506;1258;71437;-83
2024/02/10 14:14:14;;;;;;;;;;;;;;;8.34;84.43;99847.27;106625;1253;60434;-81
2024/02/10 14:16:48;;;;;;;;;;;;;;;8.30;84.44;99847.01;106321;1258;61027;-81
2024/02/10 14:19:28;;;;;;;;;;;;;;;8.25;85.11;99841.48;106551;1254;72368;-82
2024/02/10 14:22:12;;;;;;;;;;;;;;;8.33;84.41;99843.89;106783;1253;69702;-82
2024/02/10 14:24:46;;;;;;;;;;;;;;;8.35;84.18;99843.08;106650;1258;74496;-83
2024/02/10 14:27:23;;;;;;;;;;;;;;;8.36;84.38;99844.38;106450;1254;61685;-83
2024/02/10 14:30:06;;;;;;;;;;;;;;;8.40;84.00;99849.17;106451;1258;61087;-83
2024/02/10 14:32:51;;;;;;;;;;;;;;;8.34;84.46;99850.04;106657;1253;72875;-83
2024/02/10 14:35:49;;;;;;;;;;;;;;;8.35;84.42;99848.30;107393;1256;68450;-89
2024/02/10 14:39:08;;;;;;;;;;;;;;;8.17;85.59;99850.11;106504;1253;72644;-88
2024/02/10 14:41:20;;;;;;;;;;;;;;;8.19;85.92;99849.45;106358;1258;61421;-83
2024/02/10 14:44:00;;;;;;;;;;;;;;;8.26;85.44;99851.59;106382;1253;62501;-83
2024/02/10 14:46:43;;;;;;;;;;;;;;;8.27;85.35;99853.39;106851;1253;72555;-88
2024/02/10 14:49:21;;;;;;;;;;;;;;;8.32;84.92;99858.16;106502;1253;68767;-84
2024/02/10 14:51:56;;;;;;;;;;;;;;;8.26;85.26;99858.24;106404;1258;73808;-83
2024/02/10 14:54:36;;;;;;;;;;;;;;;8.13;86.21;99859.66;106728;1253;60440;-82
2024/02/10 14:57:16;;;;;;;;;;;;;;;8.05;86.95;99853.48;106713;1256;60365;-83
2024/02/10 14:59:51;;;;;;;;;;;;;;;8.08;86.97;99854.00;106919;1253;76237;-83
2024/02/10 15:02:25;;;;;;;;;;;;;;;8.11;86.85;99860.97;106551;1258;70947;-86
2024/02/10 15:05:06;;;;;;;;;;;;;;;8.15;86.52;99864.11;106977;1253;74063;-86
2024/02/10 15:07:45;;;;;;;;;;;;;;;8.17;86.31;99864.54;106699;1253;60445;-86
2024/02/10 15:10:19;;;;;;;;;;;;;;;8.27;85.64;99864.66;106692;1253;60529;-87
2024/02/10 15:12:53;;;;;;;;;;;;;;;8.26;85.60;99865.86;106489;1253;76277;-84
2024/02/10 15:15:38;;;;;;;;;;;;;;;8.24;85.69;99864.45;106816;1253;69549;-83
2024/02/10 15:18:21;;;;;;;;;;;;;;;8.32;84.77;99865.89;106642;1253;72705;-87
2024/02/10 15:21:01;;;;;;;;;;;;;;;8.26;85.27;99868.20;106681;1253;62922;-87
2024/02/10 15:23:30;;;;;;;;;;;;;;;8.32;84.79;99867.19;107962;1258;59562;-87
2024/02/10 15:26:13;;;;;;;;;;;;;;;8.38;84.58;99872.30;106524;1258;73852;-86
2024/02/10 15:28:53;;;;;;;;;;;;;;;8.42;83.88;99869.09;106499;1256;68418;-87
2024/02/10 15:31:34;;;;;;;;;;;;;;;8.44;83.88;99868.98;107232;1253;74859;-83
2024/02/10 15:34:03;;;;;;;;;;;;;;;8.37;84.15;99876.08;106438;1257;60549;-83
2024/02/10 15:43:51;;;;;;;;;;;;;;;8.24;85.16;99875.34;103132;1296;599445;-85
2024/02/10 15:46:31;;;;;;;;;;;;;;;8.29;85.14;99877.01;105603;1271;61339;-86
2024/02/10 15:49:12;;;;;;;;;;;;;;;8.33;84.76;99875.63;105636;1267;59378;-85
2024/02/10 15:51:49;;;;;;;;;;;;;;;8.41;84.35;99879.88;105564;1267;74450;-85
2024/02/10 15:54:22;;;;;;;;;;;;;;;8.52;83.66;99882.29;105811;1268;67639;-85
2024/02/10 15:57:02;;;;;;;;;;;;;;;8.61;82.73;99880.65;105422;1270;208578;-85
2024/02/10 15:59:42;;;;;;;;;;;;;;;8.76;81.60;99880.48;105646;1270;60867;-84
2024/02/10 16:02:17;;;;;;;;;;;;;;;8.79;80.79;99877.68;105733;1269;59728;-85
2024/02/10 16:04:52;;;;;;;;;;;;;;;8.72;81.15;99879.34;105714;1266;74361;-84
2024/02/10 16:07:34;;;;;;;;;;;;;;;8.64;82.04;99883.96;105868;1269;71071;-84
2024/02/10 16:10:14;;;;;;;;;;;;;;;8.79;80.95;99885.08;105844;1265;74700;-84
2024/02/10 16:12:49;;;;;;;;;;;;;;;8.82;80.37;99882.78;105704;1267;59797;-85
2024/02/10 16:15:26;;;;;;;;;;;;;;;8.79;80.48;99891.62;105737;1267;59625;-85
2024/02/10 16:18:06;;;;;;;;;;;;;;;8.85;80.33;99892.73;105893;1265;74147;-84
2024/02/10 16:20:49;;;;;;;;;;;;;;;8.90;79.96;99891.55;105769;1270;69470;-85
2024/02/10 16:23:23;;;;;;;;;;;;;;;8.57;81.69;99887.93;105725;1269;74758;-85
2024/02/10 16:25:56;;;;;;;;;;;;;;;8.48;83.17;99883.60;106431;1257;59752;-85
2024/02/10 16:28:36;;;;;;;;;;;;;;;8.45;83.40;99879.54;106788;1258;60881;-84
2024/02/10 16:31:18;;;;;;;;;;;;;;;8.49;83.09;99879.58;106540;1254;73180;-84
2024/02/10 16:33:55;;;;;;;;;;;;;;;8.46;83.37;99883.14;106422;1254;67631;-84
2024/02/10 16:36:29;;;;;;;;;;;;;;;8.42;83.53;99884.83;106736;1253;72691;-83
2024/02/10 16:39:10;;;;;;;;;;;;;;;8.41;83.79;99887.13;106487;1253;63218;-84
2024/02/10 16:41:50;;;;;;;;;;;;;;;8.33;84.39;99889.03;106585;1254;60932;-83
2024/02/10 16:44:24;;;;;;;;;;;;;;;8.22;85.49;99887.86;106429;1254;74266;-84
2024/02/10 16:46:59;;;;;;;;;;;;;;;8.22;85.54;99884.50;106698;1254;70503;-84
2024/02/10 16:49:40;;;;;;;;;;;;;;;8.24;85.55;99883.55;106818;1254;71456;-83
2024/02/10 16:52:22;;;;;;;;;;;;;;;8.31;85.19;99890.02;106719;1254;60270;-83
2024/02/10 16:54:56;;;;;;;;;;;;;;;8.32;85.28;99895.95;106562;1259;60858;-84
2024/02/10 16:57:32;;;;;;;;;;;;;;;8.39;84.88;99893.38;106622;1254;74771;-83
2024/02/10 17:00:22;;;;;;;;;;;;;;;8.38;85.01;99893.21;106649;1256;69965;-84
2024/02/10 17:03:04;;;;;;;;;;;;;;;8.46;84.57;99894.34;106419;1254;71118;-85
2024/02/10 17:05:56;;;;;;;;;;;;;;;8.31;85.46;99895.09;106617;1254;60075;-83
2024/02/10 17:08:31;;;;;;;;;;;;;;;8.22;86.17;99902.63;106651;1254;60880;-83
2024/02/10 17:11:07;;;;;;;;;;;;;;;8.34;85.68;99899.05;106571;1259;74190;-85
2024/02/10 17:13:48;;;;;;;;;;;;;;;8.31;85.48;99899.27;106540;1254;70407;-84
2024/02/10 17:16:28;;;;;;;;;;;;;;;8.42;85.14;99899.80;106710;1254;75111;-83
2024/02/10 17:19:05;;;;;;;;;;;;;;;8.48;84.53;99905.71;106598;1253;60851;-84
2024/02/10 17:21:41;;;;;;;;;;;;;;;8.51;84.23;99908.64;106613;1254;60967;-84
2024/02/10 17:24:22;;;;;;;;;;;;;;;8.48;84.41;99914.48;106701;1253;73422;-84
2024/02/10 17:27:02;;;;;;;;;;;;;;;8.45;84.97;99911.94;106966;1253;70784;-85
2024/02/10 17:29:35;;;;;;;;;;;;;;;8.34;85.92;99917.28;106617;1254;71354;-85
2024/02/10 17:32:09;;;;;;;;;;;;;;;8.40;85.53;99917.94;106635;1254;61740;-85
2024/02/10 17:34:51;;;;;;;;;;;;;;;8.32;86.18;99922.46;107260;1253;60889;-84
2024/02/10 17:37:31;;;;;;;;;;;;;;;8.26;86.72;99926.40;106618;1256;74261;-83
2024/02/10 17:40:06;;;;;;;;;;;;;;;8.29;86.70;99931.29;106618;1254;67268;-83
2024/02/10 17:42:39;;;;;;;;;;;;;;;8.27;86.84;99930.53;106523;1254;73899;-83
2024/02/10 17:45:19;;;;;;;;;;;;;;;8.19;87.32;99924.84;106778;1257;59717;-84
2024/02/10 17:47:59;;;;;;;;;;;;;;;8.16;88.03;99928.23;106546;1256;60691;-84
2024/02/10 17:50:33;;;;;;;;;;;;;;;8.14;88.00;99921.85;106642;1254;71577;-83
2024/02/10 17:53:09;;;;;;;;;;;;;;;8.21;87.83;99919.50;106522;1254;70117;-84
2024/02/10 17:55:48;;;;;;;;;;;;;;;8.22;87.71;99925.65;106575;1254;74032;-84
2024/02/10 17:58:29;;;;;;;;;;;;;;;8.31;87.20;99923.89;106497;1253;62132;-84
2024/02/10 18:01:06;;;;;;;;;;;;;;;8.20;88.08;99932.58;106632;1254;61241;-84
2024/02/10 18:03:40;;;;;;;;;;;;;;;8.27;87.72;99935.21;106493;1254;75338;-84
2024/02/10 18:06:21;;;;;;;;;;;;;;;8.25;87.53;99934.45;106536;1253;70659;-83
2024/02/10 18:09:01;;;;;;;;;;;;;;;8.23;87.72;99939.31;106488;1254;73752;-84
2024/02/10 18:11:35;;;;;;;;;;;;;;;8.20;88.00;99935.45;106765;1254;59968;-83
2024/02/10 18:14:09;;;;;;;;;;;;;;;8.09;88.70;99939.17;106542;1253;59955;-83
2024/02/10 18:16:51;;;;;;;;;;;;;;;8.13;88.81;99942.77;106491;1253;72144;-83
2024/02/10 18:19:32;;;;;;;;;;;;;;;8.19;88.33;99941.11;106500;1255;71039;-82
2024/02/10 18:22:06;;;;;;;;;;;;;;;8.25;87.87;99942.67;106494;1259;73358;-83
2024/02/10 18:24:44;;;;;;;;;;;;;;;8.29;87.62;99937.23;106484;1253;61098;-82
2024/02/10 18:27:25;;;;;;;;;;;;;;;8.30;87.48;99931.73;106590;1254;60946;-83
2024/02/10 18:30:06;;;;;;;;;;;;;;;8.28;87.89;99935.81;106748;1254;75232;-82
2024/02/10 18:32:46;;;;;;;;;;;;;;;8.22;88.24;99929.73;106521;1260;68401;-83
2024/02/10 18:35:23;;;;;;;;;;;;;;;8.22;88.11;99931.58;106441;1254;73038;-83
2024/02/10 18:38:03;;;;;;;;;;;;;;;8.20;88.46;99936.26;106619;1254;60773;-82
2024/02/10 18:40:43;;;;;;;;;;;;;;;8.24;88.17;99933.42;106607;1254;59845;-83
2024/02/10 18:43:17;;;;;;;;;;;;;;;8.30;87.85;99924.70;106515;1254;75229;-83
2024/02/10 18:45:50;;;;;;;;;;;;;;;8.42;86.75;99925.67;106483;1257;69903;-83
2024/02/10 18:48:30;;;;;;;;;;;;;;;8.49;86.18;99925.33;106662;1254;72754;-83
2024/02/10 18:51:14;;;;;;;;;;;;;;;8.49;85.83;99927.34;106514;1257;60565;-83
2024/02/10 18:53:48;;;;;;;;;;;;;;;8.37;86.59;99927.24;106424;1253;60710;-83
2024/02/10 18:56:23;;;;;;;;;;;;;;;8.36;86.84;99928.77;106687;1254;73013;-83
2024/02/10 18:59:03;;;;;;;;;;;;;;;8.42;86.43;99934.42;106823;1259;68354;-84
2024/02/10 19:01:43;;;;;;;;;;;;;;;8.42;86.30;99933.98;107004;1259;72733;-84
2024/02/10 19:04:23;;;;;;;;;;;;;;;8.45;85.96;99935.23;106443;1254;60290;-83
2024/02/10 19:06:51;;;;;;;;;;;;;;;8.45;86.12;99943.91;106556;1253;62063;-83
2024/02/10 19:09:31;;;;;;;;;;;;;;;8.37;86.67;99950.71;106402;1255;75305;-83
2024/02/10 19:12:10;;;;;;;;;;;;;;;8.39;86.60;99949.78;106483;1254;69624;-83
2024/02/10 19:14:51;;;;;;;;;;;;;;;8.43;86.42;99952.46;106480;1253;71397;-83
2024/02/10 19:17:34;;;;;;;;;;;;;;;8.41;86.75;99952.25;106759;1252;60831;-83
2024/02/10 19:20:20;;;;;;;;;;;;;;;8.31;87.52;99945.45;106498;1254;61179;-83
2024/02/10 19:23:00;;;;;;;;;;;;;;;8.29;87.74;99953.50;106409;1254;74965;-84
2024/02/10 19:25:43;;;;;;;;;;;;;;;8.32;87.86;99961.06;106438;1253;69666;-84
2024/02/10 19:28:24;;;;;;;;;;;;;;;8.36;87.48;99967.85;106795;1254;71434;-83
2024/02/10 19:31:07;;;;;;;;;;;;;;;8.39;87.33;99971.61;106491;1254;62032;-83
2024/02/10 19:33:34;;;;;;;;;;;;;;;8.40;87.36;99969.11;106420;1254;60808;-84
2024/02/10 19:36:10;;;;;;;;;;;;;;;8.46;87.05;99975.27;106488;1254;74072;-85
2024/02/10 19:38:44;;;;;;;;;;;;;;;8.50;86.63;99979.39;106543;1256;69992;-83
2024/02/10 19:41:18;;;;;;;;;;;;;;;8.47;86.83;99976.99;106903;1254;73888;-83
2024/02/10 19:43:52;;;;;;;;;;;;;;;8.49;86.70;99972.16;108839;1253;60685;-83
2024/02/10 19:46:26;;;;;;;;;;;;;;;8.35;87.68;99969.98;109196;1252;62010;-83
2024/02/10 19:49:08;;;;;;;;;;;;;;;8.35;87.76;99970.14;109219;1254;74161;-83
2024/02/10 19:51:42;;;;;;;;;;;;;;;8.28;88.26;99964.98;109113;1254;69995;-82
2024/02/10 19:54:16;;;;;;;;;;;;;;;8.27;88.39;99967.45;106759;1256;74925;-84
2024/02/10 19:56:46;;;;;;;;;;;;;;;8.14;89.39;99963.72;106425;1254;60420;-84
2024/02/10 19:59:20;;;;;;;;;;;;;;;8.14;89.47;99963.21;106475;1256;59357;-85
2024/02/10 20:01:54;;;;;;;;;;;;;;;8.12;89.57;99964.98;106382;1253;75203;-84
2024/02/10 20:04:29;;;;;;;;;;;;;;;8.11;89.45;99962.52;106783;1253;71351;-85
2024/02/10 20:07:04;;;;;;;;;;;;;;;8.05;90.12;99969.72;106587;1254;73724;-84
2024/02/10 20:09:38;;;;;;;;;;;;;;;7.90;91.20;99965.05;106512;1258;60332;-84
2024/02/10 20:12:15;;;;;;;;;;;;;;;7.79;92.24;99958.36;106609;1254;60677;-84
2024/02/10 20:14:47;;;;;;;;;;;;;;;7.74;92.79;99959.79;106624;1253;74115;-84
2024/02/10 20:17:21;;;;;;;;;;;;;;;7.78;92.81;99960.64;106559;1258;69381;-84
2024/02/10 20:19:49;;;;;;;;;;;;;;;7.82;92.49;99956.03;106244;1254;75500;-84
2024/02/10 20:22:23;;;;;;;;;;;;;;;7.87;92.14;99951.34;106465;1253;60836;-84
2024/02/10 20:24:50;;;;;;;;;;;;;;;7.88;91.99;99952.92;106573;1253;60662;-84
2024/02/10 20:27:21;;;;;;;;;;;;;;;7.90;91.97;99953.46;106747;1254;74942;-84
2024/02/10 20:29:50;;;;;;;;;;;;;;;7.96;91.76;99953.67;106403;1259;66152;-84
2024/02/10 20:32:24;;;;;;;;;;;;;;;8.03;91.23;99957.70;106506;1253;74929;-84
2024/02/10 20:34:55;;;;;;;;;;;;;;;8.04;91.13;99966.29;106611;1259;61538;-84
2024/02/10 20:37:23;;;;;;;;;;;;;;;8.10;90.69;99972.27;106747;1254;60894;-83
2024/02/10 20:39:54;;;;;;;;;;;;;;;8.10;90.67;99970.04;106485;1254;73872;-83
2024/02/10 20:42:28;;;;;;;;;;;;;;;8.10;90.58;99973.52;106712;1254;69443;-84
2024/02/10 20:45:02;;;;;;;;;;;;;;;8.08;90.83;99970.42;106575;1254;73635;-84
2024/02/10 20:47:31;;;;;;;;;;;;;;;8.09;90.84;99966.71;106464;1254;60441;-83
2024/02/10 20:50:10;;;;;;;;;;;;;;;8.10;90.89;99971.95;106359;1254;60405;-84
2024/02/10 20:52:50;;;;;;;;;;;;;;;8.06;91.25;99971.13;106551;1256;73859;-83
2024/02/10 20:55:24;;;;;;;;;;;;;;;8.11;91.40;99974.02;106527;1253;67610;-84
2024/02/10 20:57:52;;;;;;;;;;;;;;;8.18;90.88;99976.34;106503;1254;74661;-85
2024/02/10 21:00:27;;;;;;;;;;;;;;;8.15;91.31;99974.44;106524;1254;63246;-84
2024/02/10 21:02:56;;;;;;;;;;;;;;;8.24;90.69;99969.79;106532;1254;60539;-84
2024/02/10 21:05:30;;;;;;;;;;;;;;;8.26;90.47;99970.66;106735;1254;75198;-84
2024/02/10 21:08:02;;;;;;;;;;;;;;;8.31;89.99;99973.92;106480;1254;69995;-84
2024/02/10 21:10:35;;;;;;;;;;;;;;;8.33;89.73;99973.74;106597;1257;74620;-84
2024/02/10 21:13:04;;;;;;;;;;;;;;;8.37;89.58;99970.80;106666;1253;60807;-84